createdAt,value
2019-01-02T00:01:50.647Z,29.73
2019-01-02T00:04:21.223Z,30.27
2019-01-02T00:07:11.036Z,29.90
2019-01-02T00:10:01.173Z,29.87
2019-01-02T00:12:50.657Z,30.93
2019-01-02T00:15:41.842Z,38.13
2019-01-02T00:18:32.202Z,29.73
2019-01-02T00:21:21.675Z,27.40
2019-01-02T00:24:11.215Z,29.13
2019-01-02T00:27:01.109Z,25.47
2019-01-02T00:29:51.062Z,27.80
2019-01-02T00:32:40.527Z,22.83
2019-01-02T00:35:24.120Z,26.03
2019-01-02T00:38:13.993Z,30.03
2019-01-02T00:40:44.695Z,31.50
2019-01-02T00:43:15.169Z,29.93
2019-01-02T00:45:45.872Z,25.80
2019-01-02T00:48:35.575Z,26.73
2019-01-02T00:51:24.991Z,29.43
2019-01-02T00:53:55.723Z,24.33
2019-01-02T00:56:45.167Z,29.87
2019-01-02T00:59:34.948Z,29.00
2019-01-02T01:02:24.685Z,26.87
2019-01-02T01:04:55.836Z,33.13
2019-01-02T01:07:45.496Z,39.43
2019-01-02T01:10:35.251Z,26.33
2019-01-02T01:13:24.690Z,27.10
2019-01-02T01:16:14.568Z,25.80
2019-01-02T01:19:04.033Z,26.87
2019-01-02T01:21:53.467Z,32.70
2019-01-02T01:24:42.932Z,29.93
2019-01-02T01:27:34.178Z,28.37
2019-01-02T01:30:23.768Z,28.33
2019-01-02T01:33:13.233Z,28.43
2019-01-02T01:35:55.882Z,28.87
2019-01-02T01:38:45.340Z,31.27
2019-01-02T01:41:34.828Z,26.60
2019-01-02T01:44:24.278Z,29.97
2019-01-02T01:47:14.029Z,29.57
2019-01-02T01:50:03.854Z,33.37
2019-01-02T01:52:53.959Z,27.97
2019-01-02T01:55:43.392Z,33.40
2019-01-02T01:58:32.856Z,27.27
2019-01-02T02:01:04.908Z,26.57
2019-01-02T02:03:36.289Z,28.30
2019-01-02T02:06:25.730Z,36.30
2019-01-02T02:08:56.252Z,30.30
2019-01-02T02:11:45.708Z,35.53
2019-01-02T02:14:34.913Z,39.07
2019-01-02T02:17:23.792Z,28.63
2019-01-02T02:20:14.320Z,36.23
2019-01-02T02:23:04.037Z,31.87
2019-01-02T02:25:55.268Z,37.27
2019-01-02T02:28:44.955Z,35.20
2019-01-02T02:31:26.882Z,33.17
2019-01-02T02:34:16.552Z,35.47
2019-01-02T02:37:07.777Z,39.37
2019-01-02T02:39:57.595Z,34.73
2019-01-02T02:42:47.142Z,29.27
2019-01-02T02:45:38.852Z,45.00
2019-01-02T02:48:28.667Z,33.60
2019-01-02T02:50:59.656Z,36.27
2019-01-02T02:53:50.846Z,34.33
2019-01-02T02:56:40.698Z,38.33
2019-01-02T02:59:31.826Z,37.30
2019-01-02T03:02:21.590Z,40.70
2019-01-02T03:05:11.613Z,33.53
2019-01-02T03:08:02.287Z,42.30
2019-01-02T03:10:53.436Z,33.83
2019-01-02T03:13:43.152Z,36.10
2019-01-02T03:16:32.987Z,42.43
2019-01-02T03:19:22.519Z,39.57
2019-01-02T03:22:12.217Z,42.40
2019-01-02T03:25:01.968Z,37.93
2019-01-02T03:27:53.176Z,39.83
2019-01-02T03:30:35.703Z,38.03
2019-01-02T03:33:25.653Z,43.10
2019-01-02T03:36:15.045Z,34.83
2019-01-02T03:39:05.758Z,38.90
2019-01-02T03:41:55.208Z,44.77
2019-01-02T03:44:44.998Z,37.37
2019-01-02T03:47:34.435Z,38.10
2019-01-02T03:50:24.018Z,49.50
2019-01-02T03:53:13.438Z,39.73
2019-01-02T03:56:02.869Z,41.17
2019-01-02T03:58:52.285Z,37.63
2019-01-02T04:01:42.033Z,43.53
2019-01-02T04:04:31.787Z,47.97
2019-01-02T04:07:21.348Z,51.50
2019-01-02T04:10:12.579Z,41.17
2019-01-02T04:12:42.938Z,47.70
2019-01-02T04:15:13.399Z,42.27
2019-01-02T04:18:03.110Z,42.90
2019-01-02T04:20:52.628Z,48.00
2019-01-02T04:23:42.030Z,44.90
2019-01-02T04:26:31.476Z,42.57
2019-01-02T04:29:14.045Z,38.53
2019-01-02T04:32:03.498Z,35.53
2019-01-02T04:34:52.969Z,48.03
2019-01-02T04:37:42.227Z,44.40
2019-01-02T04:40:31.873Z,38.07
2019-01-02T04:43:21.352Z,37.07
2019-01-02T04:46:11.079Z,30.83
2019-01-02T04:49:00.547Z,39.20
2019-01-02T04:51:50.287Z,40.53
2019-01-02T04:54:39.735Z,36.10
2019-01-02T04:57:29.459Z,39.90
2019-01-02T05:00:00.614Z,43.27
2019-01-02T05:02:31.068Z,47.97
2019-01-02T05:05:39.478Z,44.40
2019-01-02T05:08:28.978Z,41.33
2019-01-02T05:11:18.703Z,41.17
2019-01-02T05:13:49.293Z,41.53
2019-01-02T05:16:38.731Z,42.57
2019-01-02T05:19:28.189Z,46.40
2019-01-02T05:21:59.127Z,31.87
2019-01-02T05:24:48.565Z,39.00
2019-01-02T05:27:38.028Z,41.00
2019-01-02T05:30:20.056Z,34.37
2019-01-02T05:33:09.464Z,35.03
2019-01-02T05:35:58.948Z,45.67
2019-01-02T05:38:48.364Z,42.73
2019-01-02T05:41:37.809Z,44.73
2019-01-02T05:44:27.259Z,44.63
2019-01-02T05:47:17.078Z,36.90
2019-01-02T05:50:06.733Z,41.60
2019-01-02T05:52:56.179Z,36.40
2019-01-02T05:55:45.612Z,33.30
2019-01-02T05:58:35.079Z,30.53
2019-01-02T06:01:24.528Z,33.70
2019-01-02T06:04:13.968Z,37.17
2019-01-02T06:07:03.384Z,38.50
2019-01-02T06:09:52.889Z,32.40
2019-01-02T06:12:42.412Z,32.37
2019-01-02T06:15:31.862Z,31.33
2019-01-02T06:18:21.353Z,39.83
2019-01-02T06:21:10.829Z,32.33
2019-01-02T06:24:00.658Z,36.87
2019-01-02T06:26:50.439Z,33.90
2019-01-02T06:29:40.496Z,32.33
2019-01-02T06:32:22.371Z,34.60
2019-01-02T06:34:53.072Z,33.40
2019-01-02T06:37:42.568Z,30.87
2019-01-02T06:40:32.094Z,32.50
2019-01-02T06:43:21.518Z,38.20
2019-01-02T06:46:10.940Z,33.03
2019-01-02T06:49:00.410Z,30.40
2019-01-02T06:51:49.909Z,33.93
2019-01-02T06:54:39.597Z,30.57
2019-01-02T06:57:29.099Z,29.40
2019-01-02T07:00:25.129Z,29.77
2019-01-02T07:03:14.830Z,29.33
2019-01-02T07:06:04.350Z,29.53
2019-01-02T07:08:54.044Z,30.80
2019-01-02T07:11:43.654Z,26.57
2019-01-02T07:14:33.119Z,31.00
2019-01-02T07:17:22.572Z,28.07
2019-01-02T07:20:12.015Z,25.93
2019-01-02T07:23:01.494Z,22.23
2019-01-02T07:25:51.363Z,18.47
2019-01-02T07:28:40.868Z,21.40
2019-01-02T07:31:22.786Z,23.93
2019-01-02T07:34:50.390Z,25.70
2019-01-02T07:38:18.055Z,27.30
2019-01-02T07:41:45.617Z,30.33
2019-01-02T07:45:13.378Z,24.00
2019-01-02T07:48:41.200Z,34.07
2019-01-02T07:52:08.819Z,25.43
2019-01-02T07:55:39.304Z,27.73
2019-01-02T07:58:58.109Z,23.17
2019-01-02T08:02:12.206Z,28.17
2019-01-02T08:05:25.749Z,27.50
2019-01-02T08:08:44.146Z,34.23
2019-01-02T08:11:47.807Z,28.87
2019-01-02T08:15:15.407Z,28.50
2019-01-02T08:18:43.093Z,27.57
2019-01-02T08:22:09.093Z,26.87
2019-01-02T08:25:36.732Z,32.30
2019-01-02T08:28:54.674Z,26.90
2019-01-02T08:32:01.766Z,30.73
2019-01-02T08:35:29.444Z,31.37
2019-01-02T08:38:59.819Z,29.33
2019-01-02T08:42:16.544Z,33.10
2019-01-02T08:45:44.198Z,28.73
2019-01-02T08:49:01.111Z,30.27
2019-01-02T08:52:32.045Z,30.60
2019-01-02T08:55:46.030Z,27.30
2019-01-02T08:59:00.982Z,29.27
2019-01-02T09:02:18.018Z,35.70
2019-01-02T09:05:30.521Z,29.27
2019-01-02T09:08:58.087Z,29.43
2019-01-02T09:12:28.758Z,25.73
2019-01-02T09:15:43.610Z,26.80
2019-01-02T09:19:11.235Z,28.87
2019-01-02T09:22:38.811Z,25.17
2019-01-02T09:26:06.499Z,27.17
2019-01-02T09:29:34.098Z,24.50
2019-01-02T09:32:44.465Z,21.43
2019-01-02T09:36:12.055Z,26.17
2019-01-02T09:43:05.413Z,21.97
2019-01-02T09:46:33.095Z,22.57
2019-01-02T09:50:01.107Z,21.37
2019-01-02T09:53:17.574Z,20.67
2019-01-02T09:56:47.994Z,21.17
2019-01-02T09:59:56.062Z,20.10
2019-01-02T10:03:23.915Z,22.87
2019-01-02T10:06:51.790Z,17.80
2019-01-02T10:10:19.464Z,21.33
2019-01-02T10:13:47.034Z,18.07
2019-01-02T10:17:04.103Z,16.77
2019-01-02T10:20:31.818Z,17.87
2019-01-02T10:23:53.072Z,23.37
2019-01-02T10:27:20.698Z,14.57
2019-01-02T10:30:48.603Z,18.40
2019-01-02T10:33:53.787Z,17.40
2019-01-02T10:37:21.438Z,12.53
2019-01-02T10:40:49.192Z,11.90
2019-01-02T10:44:17.127Z,11.67
2019-01-02T10:47:39.789Z,15.43
2019-01-02T10:51:07.386Z,14.27
2019-01-02T10:54:10.663Z,12.90
2019-01-02T10:57:30.836Z,10.60
2019-01-02T11:00:58.460Z,14.90
2019-01-02T11:04:26.035Z,13.63
2019-01-02T11:07:48.429Z,11.77
2019-01-02T11:11:16.045Z,13.43
2019-01-02T11:14:43.632Z,8.47
2019-01-02T11:18:11.560Z,8.77
2019-01-02T11:21:35.258Z,9.90
2019-01-02T11:24:49.932Z,10.90
2019-01-02T11:28:17.514Z,7.37
2019-01-02T11:31:45.135Z,14.13
2019-01-02T11:34:46.739Z,8.03
2019-01-02T11:38:14.324Z,6.93
2019-01-02T11:41:41.939Z,10.07
2019-01-02T11:45:10.089Z,7.83
2019-01-02T11:47:59.817Z,6.60
2019-01-02T11:50:49.472Z,8.20
2019-01-02T11:53:38.930Z,6.33
2019-01-02T11:56:28.361Z,6.40
2019-01-02T11:59:17.854Z,8.93
2019-01-02T12:02:07.581Z,7.60
2019-01-02T12:04:57.323Z,8.37
2019-01-02T12:07:27.677Z,5.93
2019-01-02T12:09:58.038Z,7.07
2019-01-02T12:12:28.740Z,8.40
2019-01-02T12:15:17.746Z,5.40
2019-01-02T12:18:07.180Z,7.60
2019-01-02T12:20:56.939Z,3.77
2019-01-02T12:23:46.372Z,4.27
2019-01-02T12:26:35.817Z,4.73
2019-01-02T12:29:06.245Z,8.57
2019-01-02T12:31:55.953Z,5.60
2019-01-02T12:34:45.695Z,5.70
2019-01-02T12:37:35.398Z,5.53
2019-01-02T12:40:24.863Z,11.53
2019-01-02T12:43:14.314Z,5.90
2019-01-02T12:46:04.456Z,5.57
2019-01-02T12:48:54.163Z,7.03
2019-01-02T12:51:43.908Z,4.97
2019-01-02T12:54:33.222Z,3.70
2019-01-02T12:57:22.898Z,4.57
2019-01-02T13:00:54.747Z,2.40
2019-01-02T13:07:51.566Z,3.87
2019-01-02T13:10:49.624Z,4.03
2019-01-02T13:14:05.899Z,3.07
2019-01-02T13:17:33.525Z,4.07
2019-01-02T13:21:01.152Z,2.47
2019-01-02T13:23:53.535Z,4.47
2019-01-02T13:27:14.170Z,4.70
2019-01-02T13:30:09.013Z,5.30
2019-01-02T13:33:36.587Z,4.10
2019-01-02T13:36:51.784Z,3.47
2019-01-02T13:40:19.413Z,4.37
2019-01-02T13:43:47.024Z,2.87
2019-01-02T13:46:59.852Z,5.30
2019-01-02T13:50:17.313Z,4.47
2019-01-02T13:53:09.138Z,4.80
2019-01-02T13:55:58.850Z,3.07
2019-01-02T13:58:48.453Z,4.33
2019-01-02T14:01:19.212Z,3.93
2019-01-02T14:03:54.156Z,3.23
2019-01-02T14:06:24.965Z,5.00
2019-01-02T14:09:14.718Z,3.83
2019-01-02T14:12:04.191Z,5.90
2019-01-02T14:14:53.953Z,5.67
2019-01-02T14:17:43.745Z,3.70
2019-01-02T14:20:33.507Z,8.57
2019-01-02T14:23:22.986Z,3.57
2019-01-02T14:26:12.694Z,5.07
2019-01-02T14:29:02.080Z,5.43
2019-01-02T14:31:44.572Z,3.90
2019-01-02T14:34:34.014Z,3.10
2019-01-02T14:37:04.987Z,4.37
2019-01-02T14:39:35.332Z,3.40
2019-01-02T14:42:24.978Z,4.17
2019-01-02T14:45:14.461Z,4.37
2019-01-02T14:48:03.892Z,1.33
2019-01-02T14:50:53.717Z,3.07
2019-01-02T14:53:43.168Z,5.00
2019-01-02T14:56:32.742Z,6.80
2019-01-02T14:59:22.667Z,4.13
2019-01-02T15:02:12.125Z,4.43
2019-01-02T15:05:02.189Z,2.37
2019-01-02T15:07:52.070Z,5.87
2019-01-02T15:10:41.852Z,1.83
2019-01-02T15:13:31.736Z,6.97
2019-01-02T15:16:21.511Z,4.40
2019-01-02T15:19:11.189Z,5.37
2019-01-02T15:22:04.897Z,5.63
2019-01-02T15:24:51.952Z,6.37
2019-01-02T15:27:41.396Z,5.40
2019-01-02T15:30:24.932Z,6.23
2019-01-02T15:32:55.307Z,4.87
2019-01-02T15:35:48.871Z,6.07
2019-01-02T15:38:35.938Z,4.47
2019-01-02T15:41:25.384Z,4.37
2019-01-02T15:44:15.284Z,4.20
2019-01-02T15:47:08.543Z,5.43
2019-01-02T15:49:55.892Z,4.53
2019-01-02T15:52:45.324Z,5.60
2019-01-02T15:55:15.804Z,6.10
2019-01-02T15:57:46.301Z,3.60
2019-01-02T16:00:16.662Z,4.23
2019-01-02T16:02:47.096Z,4.37
2019-01-02T16:05:17.451Z,4.93
2019-01-02T16:08:06.897Z,7.17
2019-01-02T16:10:56.904Z,4.30
2019-01-02T16:13:46.324Z,4.60
2019-01-02T16:16:35.965Z,5.57
2019-01-02T16:19:25.421Z,6.37
2019-01-02T16:22:14.917Z,5.90
2019-01-02T16:24:45.517Z,4.30
2019-01-02T16:27:15.855Z,6.33
2019-01-02T16:29:46.482Z,5.40
2019-01-02T16:32:17.386Z,6.47
2019-01-02T16:34:48.814Z,5.30
2019-01-02T16:37:38.578Z,7.03
2019-01-02T16:40:28.080Z,4.13
2019-01-02T16:42:59.002Z,7.07
2019-01-02T16:45:48.490Z,5.30
2019-01-02T16:48:19.126Z,12.43
2019-01-02T16:50:49.470Z,8.23
2019-01-02T16:53:39.304Z,8.83
2019-01-02T16:56:28.735Z,3.77
2019-01-02T16:59:18.486Z,7.77
2019-01-02T17:02:07.930Z,25.27
2019-01-02T17:04:57.370Z,19.50
2019-01-02T17:07:46.932Z,12.20
2019-01-02T17:10:36.369Z,23.10
2019-01-02T17:13:25.857Z,13.27
2019-01-02T17:16:15.823Z,13.67
2019-01-02T17:19:05.243Z,6.77
2019-01-02T17:21:54.708Z,55.63
2019-01-02T17:24:44.123Z,96.63
2019-01-02T17:27:26.694Z,110.47
2019-01-02T17:30:16.157Z,37.17
2019-01-02T17:32:46.568Z,32.70
2019-01-02T17:35:36.043Z,91.43
2019-01-02T17:38:25.804Z,78.10
2019-01-02T17:41:15.255Z,45.37
2019-01-02T17:44:04.732Z,19.60
2019-01-02T17:46:35.501Z,10.50
2019-01-02T17:49:25.060Z,13.03
2019-01-02T17:52:14.524Z,7.67
2019-01-02T17:55:04.053Z,6.93
2019-01-02T17:57:53.513Z,6.87
2019-01-02T18:00:43.465Z,7.17
2019-01-02T18:03:32.917Z,5.97
2019-01-02T18:06:22.664Z,6.93
2019-01-02T18:09:12.077Z,6.20
2019-01-02T18:12:01.646Z,7.27
2019-01-02T18:14:51.330Z,9.03
2019-01-02T18:17:40.945Z,10.43
2019-01-02T18:20:11.870Z,5.47
2019-01-02T18:23:02.219Z,7.67
2019-01-02T18:25:51.688Z,7.03
2019-01-02T18:28:22.165Z,8.87
2019-01-02T18:31:11.877Z,7.40
2019-01-02T18:34:01.370Z,6.63
2019-01-02T18:36:32.867Z,9.17
2019-01-02T18:39:22.593Z,7.43
2019-01-02T18:42:12.048Z,8.07
2019-01-02T18:45:02.100Z,10.43
2019-01-02T18:47:51.656Z,8.37
2019-01-02T18:50:41.137Z,10.67
2019-01-02T18:53:31.056Z,11.03
2019-01-02T18:56:20.938Z,9.70
2019-01-02T18:59:10.917Z,7.17
2019-01-02T19:02:00.487Z,7.23
2019-01-02T19:04:49.979Z,8.13
2019-01-02T19:07:39.453Z,8.50
2019-01-02T19:10:29.369Z,12.00
2019-01-02T19:13:19.111Z,7.30
2019-01-02T19:16:08.511Z,10.67
2019-01-02T19:18:58.048Z,9.43
2019-01-02T19:21:47.551Z,13.60
2019-01-02T19:24:19.940Z,13.30
2019-01-02T19:26:50.372Z,10.87
2019-01-02T19:29:20.716Z,12.43
2019-01-02T19:31:51.083Z,11.23
2019-01-02T19:34:40.513Z,9.40
2019-01-02T19:37:29.986Z,9.53
2019-01-02T19:40:19.401Z,8.10
2019-01-02T19:43:09.126Z,12.30
2019-01-02T19:45:58.601Z,10.67
2019-01-02T19:48:48.338Z,7.63
2019-01-02T19:51:37.800Z,7.93
2019-01-02T19:54:08.354Z,9.93
2019-01-02T19:56:57.789Z,8.10
2019-01-02T19:59:47.738Z,8.10
2019-01-02T20:02:18.342Z,9.57
2019-01-02T20:05:08.084Z,11.57
2019-01-02T20:07:39.961Z,10.00
2019-01-02T20:10:29.571Z,10.60
2019-01-02T20:13:19.273Z,8.23
2019-01-02T20:16:08.779Z,10.00
2019-01-02T20:18:58.252Z,14.60
2019-01-02T20:21:47.761Z,10.93
2019-01-02T20:24:37.491Z,10.47
2019-01-02T20:27:21.191Z,13.57
2019-01-02T20:29:51.885Z,12.20
2019-01-02T20:32:41.852Z,17.63
2019-01-02T20:35:31.712Z,16.40
2019-01-02T20:38:21.866Z,14.43
2019-01-02T20:41:14.074Z,15.87
2019-01-02T20:44:03.894Z,11.83
2019-01-02T20:46:53.334Z,14.27
2019-01-02T20:49:42.847Z,12.70
2019-01-02T20:52:33.132Z,11.67
2019-01-02T20:55:23.911Z,12.30
2019-01-02T20:58:14.036Z,13.87
2019-01-02T21:01:03.583Z,14.33
2019-01-02T21:03:53.179Z,10.53
2019-01-02T21:06:42.898Z,13.07
2019-01-02T21:09:32.451Z,12.00
2019-01-02T21:12:21.865Z,12.13
2019-01-02T21:15:11.608Z,12.77
2019-01-02T21:17:41.932Z,14.77
2019-01-02T21:20:31.423Z,14.37
2019-01-02T21:23:20.924Z,9.73
2019-01-02T21:26:10.700Z,9.93
2019-01-02T21:28:52.443Z,9.93
2019-01-02T21:31:42.125Z,11.83
2019-01-02T21:34:31.658Z,11.40
2019-01-02T21:37:21.106Z,27.10
2019-01-02T21:40:10.571Z,12.70
2019-01-02T21:42:41.016Z,8.87
2019-01-02T21:45:30.756Z,16.30
2019-01-02T21:48:20.476Z,8.73
2019-01-02T21:51:10.014Z,10.70
2019-01-02T21:54:00.086Z,8.67
2019-01-02T21:56:30.517Z,9.73
2019-01-02T21:59:20.027Z,7.50
2019-01-02T22:02:09.486Z,8.90
2019-01-02T22:04:59.300Z,8.17
2019-01-02T22:07:49.162Z,91.47
2019-01-02T22:10:38.612Z,19.87
2019-01-02T22:13:28.338Z,11.93
2019-01-02T22:16:18.164Z,10.73
2019-01-02T22:18:48.563Z,13.63
2019-01-02T22:21:18.990Z,10.33
2019-01-02T22:24:08.430Z,11.30
2019-01-02T22:26:57.988Z,9.03
2019-01-02T22:29:47.446Z,12.10
2019-01-02T22:32:36.895Z,9.13
2019-01-02T22:35:26.675Z,11.73
2019-01-02T22:38:16.161Z,10.03
2019-01-02T22:41:05.850Z,13.17
2019-01-02T22:43:55.351Z,11.20
2019-01-02T22:46:45.163Z,12.27
2019-01-02T22:49:34.971Z,10.83
2019-01-02T22:52:05.310Z,10.40
2019-01-02T22:54:54.760Z,12.33
2019-01-02T22:57:44.236Z,11.37
2019-01-02T23:00:53.147Z,13.50
2019-01-02T23:04:02.073Z,8.30
2019-01-02T23:07:10.449Z,10.07
2019-01-02T23:10:18.785Z,12.43
2019-01-02T23:13:27.139Z,9.90
2019-01-02T23:16:35.524Z,11.37
2019-01-02T23:19:44.447Z,12.23
2019-01-02T23:22:52.863Z,12.60
2019-01-02T23:25:42.129Z,9.37
2019-01-02T23:28:46.167Z,14.60
2019-01-02T23:31:54.620Z,8.07
2019-01-02T23:35:03.097Z,13.63
2019-01-02T23:38:11.458Z,12.40
2019-01-02T23:41:19.902Z,14.93
2019-01-02T23:44:09.274Z,10.57
2019-01-02T23:47:10.892Z,9.87
2019-01-02T23:50:19.318Z,12.43
2019-01-02T23:53:27.735Z,15.07
2019-01-02T23:56:36.377Z,10.40
2019-01-02T23:59:25.719Z,15.70
